Decoded Metar for UKKM (GOSTOMEL in UKRAINE) (IATA:N/A) | Meteo·Mobile Aviation Weather
aviador You're here:

UKKM Decoded Metar

GOSTOMEL in UKRAINE
Report Time2019-02-22 20:00:00
UTC Time2019-02-22 20:15:55
Flight Rules mvfr MVFR
Wind360° at 10 kt
W.Decomp.*RWY 33: 9.1 kt HW 4.2 kt RCW
Visibility7000 m
Phenomena:Light Snow
Clouds:N/A
Expected CloudBase > 1,600 ft AGL from Temp-Dew spread
CeilingNone
Temp-7°C (ISA -21)
Dew Point-11°C (73% RH)
AAT-13.7°C
QNH1029 hPa
Density Alt-2,595 ft
Elevation515 ft
Report Wrong Elevation
Raw Report
UKKM 222000Z AUTO 36005MPS 7000 -SN ///037/// M07/M11 Q1029=

Extra information for UKKM:More info

Metar Taf Metar & Taf Last 4 Metars F.Rules Stats Wind Profile Meteogram Temp Stats Airport Information Weather charts Add Link Nearby VenuesMetar ALERT Operation Metar Decoded Social comments